createdAt,value
2023-02-15T00:02:03.081Z,26.83
2023-02-15T00:04:47.210Z,25.00
2023-02-15T00:07:15.857Z,27.00
2023-02-15T00:09:42.780Z,27.97
2023-02-15T00:12:10.865Z,26.63
2023-02-15T00:14:37.745Z,26.23
2023-02-15T00:17:05.011Z,25.57
2023-02-15T00:19:31.841Z,26.60
2023-02-15T00:21:58.743Z,25.07
2023-02-15T00:24:25.675Z,26.93
2023-02-15T00:26:52.615Z,25.13
2023-02-15T00:29:20.812Z,27.07
2023-02-15T00:31:48.012Z,25.93
2023-02-15T00:34:22.008Z,26.60
2023-02-15T00:36:49.460Z,27.63
2023-02-15T00:39:17.652Z,27.03
2023-02-15T00:41:45.192Z,25.70
2023-02-15T00:44:12.824Z,26.80
2023-02-15T00:46:39.831Z,27.43
2023-02-15T00:49:06.904Z,27.93
2023-02-15T00:51:37.322Z,26.80
2023-02-15T00:54:04.264Z,27.70
2023-02-15T00:56:31.103Z,28.17
2023-02-15T00:58:57.934Z,27.50
2023-02-15T01:01:25.024Z,26.83
2023-02-15T01:03:52.418Z,28.80
2023-02-15T01:06:19.777Z,26.40
2023-02-15T01:08:47.702Z,27.37
2023-02-15T01:11:23.028Z,27.37
2023-02-15T01:13:51.969Z,26.20
2023-02-15T01:16:18.964Z,27.30
2023-02-15T01:18:46.100Z,27.50
2023-02-15T01:21:21.831Z,26.20
2023-02-15T01:23:51.110Z,26.87
2023-02-15T01:26:18.015Z,27.40
2023-02-15T01:28:45.304Z,26.97
2023-02-15T01:31:15.155Z,26.13
2023-02-15T01:33:42.669Z,26.90
2023-02-15T01:36:09.508Z,25.83
2023-02-15T01:38:37.162Z,26.43
2023-02-15T01:41:22.933Z,26.17
2023-02-15T01:44:02.132Z,26.77
2023-02-15T01:46:35.846Z,26.60
2023-02-15T01:49:25.368Z,26.67
2023-02-15T01:51:55.752Z,26.23
2023-02-15T01:54:25.654Z,26.47
2023-02-15T01:56:55.652Z,26.93
2023-02-15T01:59:24.316Z,27.23
2023-02-15T02:01:55.507Z,26.87
2023-02-15T02:04:39.806Z,27.50
2023-02-15T02:07:07.896Z,25.90
2023-02-15T02:09:35.395Z,27.43
2023-02-15T02:12:02.900Z,26.73
2023-02-15T02:14:30.119Z,26.57
2023-02-15T02:17:22.561Z,27.27
2023-02-15T02:20:08.439Z,26.27
2023-02-15T02:22:38.034Z,26.10
2023-02-15T02:25:16.572Z,27.00
2023-02-15T02:28:18.363Z,26.53
2023-02-15T02:31:16.966Z,26.17
2023-02-15T02:33:49.380Z,25.67
2023-02-15T02:36:41.336Z,25.77
2023-02-15T02:39:38.701Z,25.63
2023-02-15T02:42:17.242Z,25.03
2023-02-15T02:44:59.536Z,23.40
2023-02-15T02:47:37.333Z,24.53
2023-02-15T02:50:09.015Z,23.10
2023-02-15T02:52:37.669Z,24.73
2023-02-15T02:55:24.827Z,23.97
2023-02-15T02:58:22.417Z,24.87
2023-02-15T03:00:58.930Z,24.93
2023-02-15T03:03:38.809Z,24.87
2023-02-15T03:06:12.220Z,25.00
2023-02-15T03:08:44.429Z,24.90
2023-02-15T03:11:12.730Z,24.03
2023-02-15T03:13:40.579Z,24.60
2023-02-15T03:16:27.977Z,24.30
2023-02-15T03:19:02.648Z,23.53
2023-02-15T03:22:04.657Z,20.60
2023-02-15T03:24:37.505Z,21.77
2023-02-15T03:27:09.968Z,24.00
2023-02-15T03:29:38.187Z,23.77
2023-02-15T03:32:10.267Z,24.23
2023-02-15T03:34:37.270Z,23.27
2023-02-15T03:37:42.794Z,23.37
2023-02-15T03:40:50.234Z,22.23
2023-02-15T03:43:37.771Z,23.03
2023-02-15T03:46:29.023Z,22.77
2023-02-15T03:49:04.616Z,22.03
2023-02-15T03:51:37.199Z,21.20
2023-02-15T03:54:35.104Z,20.13
2023-02-15T03:57:21.292Z,21.07
2023-02-15T04:00:06.647Z,21.37
2023-02-15T04:02:45.700Z,21.17
2023-02-15T04:05:12.606Z,20.77
2023-02-15T04:07:39.441Z,21.00
2023-02-15T04:10:25.493Z,20.87
2023-02-15T04:12:54.699Z,19.20
2023-02-15T04:15:40.110Z,19.40
2023-02-15T04:18:06.909Z,18.63
2023-02-15T04:20:52.334Z,19.13
2023-02-15T04:23:37.713Z,17.87
2023-02-15T04:26:05.692Z,18.07
2023-02-15T04:28:32.686Z,19.40
2023-02-15T04:30:59.526Z,18.10
2023-02-15T04:33:26.305Z,18.97
2023-02-15T04:35:53.109Z,18.60
2023-02-15T04:38:19.931Z,16.77
2023-02-15T04:40:51.824Z,17.77
2023-02-15T04:43:22.128Z,16.73
2023-02-15T04:45:51.409Z,16.57
2023-02-15T04:48:19.049Z,17.77
2023-02-15T04:50:45.916Z,18.27
2023-02-15T04:53:13.487Z,18.60
2023-02-15T04:55:40.288Z,17.73
2023-02-15T04:58:07.180Z,18.93
2023-02-15T05:00:34.418Z,18.33
2023-02-15T05:03:01.220Z,18.87
2023-02-15T05:05:28.040Z,16.77
2023-02-15T05:07:55.123Z,16.80
2023-02-15T05:10:22.036Z,17.50
2023-02-15T05:12:48.940Z,17.47
2023-02-15T05:15:15.945Z,17.90
2023-02-15T05:17:42.789Z,18.63
2023-02-15T05:20:10.026Z,16.83
2023-02-15T05:22:36.826Z,17.80
2023-02-15T05:25:22.162Z,18.87
2023-02-15T05:28:07.588Z,19.80
2023-02-15T05:30:34.728Z,18.80
2023-02-15T05:33:01.645Z,18.50
2023-02-15T05:35:28.587Z,18.03
2023-02-15T05:37:55.408Z,19.67
2023-02-15T05:40:22.224Z,18.20
2023-02-15T05:42:49.024Z,17.97
2023-02-15T05:45:16.621Z,17.93
2023-02-15T05:47:43.630Z,18.13
2023-02-15T05:50:12.383Z,18.97
2023-02-15T05:52:39.486Z,19.50
2023-02-15T05:55:07.076Z,18.47
2023-02-15T05:57:33.886Z,17.77
2023-02-15T06:00:00.691Z,19.90
2023-02-15T06:02:27.637Z,19.30
2023-02-15T06:04:54.452Z,19.67
2023-02-15T06:07:21.279Z,19.83
2023-02-15T06:09:48.050Z,19.33
2023-02-15T06:12:14.915Z,19.93
2023-02-15T06:14:41.809Z,20.17
2023-02-15T06:17:09.711Z,18.83
2023-02-15T06:19:36.564Z,18.67
2023-02-15T06:22:03.403Z,19.53
2023-02-15T06:24:30.347Z,18.30
2023-02-15T06:26:57.252Z,17.70
2023-02-15T06:29:24.020Z,18.80
2023-02-15T06:31:51.083Z,17.40
2023-02-15T06:34:18.137Z,19.20
2023-02-15T06:36:44.947Z,19.33
2023-02-15T06:39:11.920Z,17.60
2023-02-15T06:41:38.685Z,17.00
2023-02-15T06:44:05.791Z,17.33
2023-02-15T06:46:32.667Z,18.33
2023-02-15T06:48:59.527Z,18.50
2023-02-15T06:51:26.434Z,17.00
2023-02-15T06:53:53.301Z,18.67
2023-02-15T06:56:20.091Z,17.47
2023-02-15T06:58:47.071Z,19.43
2023-02-15T07:01:14.062Z,18.23
2023-02-15T07:03:40.970Z,19.77
2023-02-15T07:06:15.830Z,20.17
2023-02-15T07:08:42.704Z,19.53
2023-02-15T07:11:28.602Z,19.60
2023-02-15T07:13:55.429Z,17.90
2023-02-15T07:16:22.311Z,18.87
2023-02-15T07:18:49.401Z,19.13
2023-02-15T07:21:16.177Z,17.87
2023-02-15T07:23:43.194Z,17.73
2023-02-15T07:26:10.078Z,17.93
2023-02-15T07:28:37.381Z,17.60
2023-02-15T07:31:07.167Z,17.57
2023-02-15T07:33:37.100Z,17.23
2023-02-15T07:36:05.541Z,16.87
2023-02-15T07:38:36.379Z,15.50
2023-02-15T07:41:08.825Z,16.17
2023-02-15T07:43:38.561Z,16.57
2023-02-15T07:46:08.632Z,15.53
2023-02-15T07:48:36.440Z,15.00
2023-02-15T07:51:06.544Z,15.60
2023-02-15T07:53:33.790Z,15.30
2023-02-15T07:56:05.938Z,14.90
2023-02-15T07:58:52.075Z,13.77
2023-02-15T08:01:21.842Z,13.47
2023-02-15T08:03:49.521Z,14.40
2023-02-15T08:06:16.460Z,13.40
2023-02-15T08:08:43.786Z,13.50
2023-02-15T08:11:32.037Z,13.47
2023-02-15T08:14:07.937Z,13.30
2023-02-15T08:16:44.796Z,12.67
2023-02-15T08:19:17.417Z,12.63
2023-02-15T08:21:49.962Z,13.50
2023-02-15T08:24:19.386Z,13.30
2023-02-15T08:26:47.840Z,13.23
2023-02-15T08:29:16.883Z,13.37
2023-02-15T08:31:44.365Z,13.27
2023-02-15T08:34:14.101Z,13.80
2023-02-15T08:36:41.209Z,14.27
2023-02-15T08:39:08.066Z,15.07
2023-02-15T08:41:37.011Z,16.13
2023-02-15T08:44:07.035Z,14.70
2023-02-15T08:46:37.406Z,15.93
2023-02-15T08:49:04.767Z,15.13
2023-02-15T08:51:35.626Z,16.80
2023-02-15T08:54:05.476Z,15.67
2023-02-15T08:56:37.452Z,15.70
2023-02-15T08:59:05.679Z,15.73
2023-02-15T09:01:34.356Z,14.47
2023-02-15T09:04:11.925Z,14.93
2023-02-15T09:06:40.618Z,14.43
2023-02-15T09:09:08.603Z,14.17
2023-02-15T09:11:45.068Z,14.00
2023-02-15T09:14:15.727Z,13.87
2023-02-15T09:16:47.323Z,13.37
2023-02-15T09:19:14.455Z,13.93
2023-02-15T09:21:42.202Z,12.83
2023-02-15T09:24:12.203Z,14.40
2023-02-15T09:26:42.113Z,13.30
2023-02-15T09:29:09.929Z,13.63
2023-02-15T09:31:52.310Z,13.40
2023-02-15T09:34:22.699Z,13.50
2023-02-15T09:36:50.332Z,13.90
2023-02-15T09:39:24.670Z,13.47
2023-02-15T09:42:19.462Z,13.90
2023-02-15T09:44:58.928Z,13.20
2023-02-15T09:47:31.892Z,13.40
2023-02-15T09:50:01.728Z,13.60
2023-02-15T09:52:44.260Z,14.53
2023-02-15T09:55:34.467Z,13.50
2023-02-15T09:58:16.821Z,13.27
2023-02-15T10:01:01.614Z,13.87
2023-02-15T10:03:42.321Z,14.40
2023-02-15T10:06:47.341Z,14.17
2023-02-15T10:09:20.128Z,14.37
2023-02-15T10:12:01.716Z,13.90
2023-02-15T10:15:01.488Z,13.87
2023-02-15T10:17:46.606Z,14.63
2023-02-15T10:20:29.668Z,14.07
2023-02-15T10:23:34.490Z,13.20
2023-02-15T10:26:23.714Z,13.70
2023-02-15T10:28:58.125Z,15.13
2023-02-15T10:31:36.217Z,16.40
2023-02-15T10:34:05.710Z,15.70
2023-02-15T10:36:51.074Z,16.07
2023-02-15T10:39:23.443Z,16.03
2023-02-15T10:42:27.604Z,15.13
2023-02-15T10:45:16.183Z,14.37
2023-02-15T10:48:20.678Z,15.97
2023-02-15T10:51:13.092Z,15.73
2023-02-15T10:53:54.742Z,15.60
2023-02-15T10:56:56.574Z,16.03
2023-02-15T10:59:34.721Z,15.90
2023-02-15T11:02:12.939Z,15.60
2023-02-15T11:05:14.908Z,16.33
2023-02-15T11:07:44.813Z,15.97
2023-02-15T11:10:44.374Z,15.27
2023-02-15T11:13:23.668Z,16.33
2023-02-15T11:16:06.249Z,15.73
2023-02-15T11:18:42.600Z,15.23
2023-02-15T11:21:33.608Z,14.83
2023-02-15T11:24:02.457Z,14.87
2023-02-15T11:26:31.063Z,14.63
2023-02-15T11:29:09.625Z,15.73
2023-02-15T11:31:56.296Z,15.77
2023-02-15T11:34:26.167Z,15.57
2023-02-15T11:36:55.950Z,16.07
2023-02-15T11:39:24.414Z,17.03
2023-02-15T11:41:56.044Z,16.60
2023-02-15T11:44:35.962Z,15.50
2023-02-15T11:47:03.659Z,16.40
2023-02-15T11:49:36.001Z,17.27
2023-02-15T11:52:06.940Z,16.97
2023-02-15T11:54:38.422Z,17.40
2023-02-15T11:57:32.930Z,17.77
2023-02-15T12:00:08.603Z,17.83
2023-02-15T12:02:39.195Z,17.33
2023-02-15T12:05:20.233Z,17.57
2023-02-15T12:08:10.649Z,16.77
2023-02-15T12:11:18.559Z,17.83
2023-02-15T12:14:12.994Z,18.03
2023-02-15T12:16:49.665Z,18.47
2023-02-15T12:19:38.657Z,17.60
2023-02-15T12:22:18.486Z,18.97
2023-02-15T12:24:48.279Z,18.50
2023-02-15T12:27:15.019Z,17.40
2023-02-15T12:29:45.649Z,18.30
2023-02-15T12:32:35.462Z,18.37
2023-02-15T12:35:19.415Z,17.80
2023-02-15T12:38:16.787Z,18.13
2023-02-15T12:40:59.103Z,18.20
2023-02-15T12:43:36.395Z,17.30
2023-02-15T12:46:26.331Z,17.27
2023-02-15T12:49:11.268Z,17.03
2023-02-15T12:52:00.443Z,16.70
2023-02-15T12:54:31.823Z,17.47
2023-02-15T12:56:59.595Z,17.90
2023-02-15T12:59:26.961Z,18.77
2023-02-15T13:01:57.086Z,17.70
2023-02-15T13:04:30.348Z,18.37
2023-02-15T13:07:01.799Z,17.83
2023-02-15T13:09:32.211Z,18.10
2023-02-15T13:12:17.535Z,18.37
2023-02-15T13:14:47.490Z,17.83
2023-02-15T13:17:18.440Z,17.93
2023-02-15T13:19:55.350Z,16.57
2023-02-15T13:22:43.012Z,18.63
2023-02-15T13:25:35.726Z,17.83
2023-02-15T13:28:06.611Z,19.10
2023-02-15T13:30:37.809Z,18.87
2023-02-15T13:33:35.055Z,18.17
2023-02-15T13:36:09.553Z,18.80
2023-02-15T13:38:51.620Z,19.93
2023-02-15T13:41:27.996Z,19.67
2023-02-15T13:44:23.273Z,19.73
2023-02-15T13:47:11.088Z,19.47
2023-02-15T13:49:51.409Z,19.20
2023-02-15T13:52:22.671Z,19.77
2023-02-15T13:55:43.873Z,20.07
2023-02-15T13:58:48.049Z,18.17
2023-02-15T14:01:38.358Z,18.77
2023-02-15T14:04:18.840Z,20.33
2023-02-15T14:07:17.159Z,20.60
2023-02-15T14:10:00.000Z,19.97
2023-02-15T14:12:46.202Z,21.63
2023-02-15T14:15:39.474Z,21.47
2023-02-15T14:18:36.440Z,22.00
2023-02-15T14:21:03.861Z,22.27
2023-02-15T14:23:39.685Z,18.33
2023-02-15T14:26:33.557Z,19.47
2023-02-15T14:29:26.021Z,18.07
2023-02-15T14:32:00.347Z,17.43
2023-02-15T14:34:30.647Z,19.57
2023-02-15T14:36:58.890Z,19.27
2023-02-15T14:40:20.776Z,20.03
2023-02-15T14:42:57.250Z,19.87
2023-02-15T14:45:34.192Z,21.43
2023-02-15T14:48:09.400Z,22.03
2023-02-15T14:50:46.640Z,22.10
2023-02-15T14:53:17.068Z,20.30
2023-02-15T14:55:43.964Z,20.47
2023-02-15T14:58:14.837Z,18.53
2023-02-15T15:00:43.155Z,18.43
2023-02-15T15:03:27.193Z,16.83
2023-02-15T15:06:05.819Z,17.90
2023-02-15T15:08:40.152Z,18.53
2023-02-15T15:11:42.087Z,18.30
2023-02-15T15:14:15.561Z,18.50
2023-02-15T15:16:50.858Z,18.57
2023-02-15T15:19:52.297Z,18.67
2023-02-15T15:22:21.773Z,20.13
2023-02-15T15:24:51.945Z,18.33
2023-02-15T15:27:37.577Z,19.73
2023-02-15T15:30:24.888Z,19.07
2023-02-15T15:32:55.454Z,20.43
2023-02-15T15:35:36.016Z,20.77
2023-02-15T15:38:39.770Z,19.70
2023-02-15T15:41:15.357Z,20.13
2023-02-15T15:44:04.930Z,21.93
2023-02-15T15:47:02.916Z,20.50
2023-02-15T15:49:35.806Z,19.17
2023-02-15T15:52:10.167Z,21.07
2023-02-15T15:54:40.901Z,21.53
2023-02-15T15:57:29.105Z,20.70
2023-02-15T15:59:57.198Z,20.87
2023-02-15T16:02:24.688Z,21.10
2023-02-15T16:04:51.690Z,20.30
2023-02-15T16:07:18.613Z,19.07
2023-02-15T16:10:24.967Z,19.20
2023-02-15T16:12:56.052Z,20.47
2023-02-15T16:15:26.221Z,19.60
2023-02-15T16:17:58.844Z,19.37
2023-02-15T16:20:37.313Z,20.13
2023-02-15T16:23:39.229Z,20.30
2023-02-15T16:26:32.053Z,19.80
2023-02-15T16:29:00.267Z,19.67
2023-02-15T16:31:27.326Z,19.03
2023-02-15T16:33:56.126Z,19.37
2023-02-15T16:36:28.352Z,19.80
2023-02-15T16:38:58.306Z,20.63
2023-02-15T16:41:28.561Z,19.37
2023-02-15T16:43:59.447Z,18.70
2023-02-15T16:46:32.982Z,19.03
2023-02-15T16:49:15.449Z,19.97
2023-02-15T16:51:45.738Z,19.50
2023-02-15T16:54:23.581Z,19.63
2023-02-15T16:56:50.632Z,20.40
2023-02-15T16:59:43.289Z,19.70
2023-02-15T17:02:49.341Z,20.33
2023-02-15T17:05:12.826Z,20.43
2023-02-15T17:07:41.626Z,20.00
2023-02-15T17:11:06.019Z,20.97
2023-02-15T17:13:39.295Z,20.47
2023-02-15T17:16:23.638Z,22.50
2023-02-15T17:18:52.513Z,21.23
2023-02-15T17:21:34.394Z,20.67
2023-02-15T17:24:05.162Z,22.23
2023-02-15T17:26:35.753Z,21.43
2023-02-15T17:29:15.576Z,20.90
2023-02-15T17:31:50.692Z,20.20
2023-02-15T17:35:11.709Z,20.10
2023-02-15T17:37:38.510Z,20.77
2023-02-15T17:40:25.295Z,21.27
2023-02-15T17:42:53.593Z,21.57
2023-02-15T17:45:21.900Z,22.33
2023-02-15T17:47:50.059Z,22.77
2023-02-15T17:50:23.197Z,22.57
2023-02-15T17:52:51.546Z,22.03
2023-02-15T17:55:39.226Z,21.70
2023-02-15T17:58:08.461Z,21.33
2023-02-15T18:00:57.286Z,21.80
2023-02-15T18:03:44.337Z,22.53
2023-02-15T18:06:32.953Z,22.33
2023-02-15T18:09:18.243Z,22.80
2023-02-15T18:11:49.087Z,22.93
2023-02-15T18:14:16.091Z,23.17
2023-02-15T18:16:45.756Z,24.23
2023-02-15T18:19:17.718Z,23.07
2023-02-15T18:21:45.903Z,22.47
2023-02-15T18:24:19.554Z,23.53
2023-02-15T18:26:47.061Z,23.40
2023-02-15T18:29:16.550Z,23.27
2023-02-15T18:31:45.992Z,24.07
2023-02-15T18:34:21.322Z,24.17
2023-02-15T18:36:48.723Z,23.23
2023-02-15T18:39:45.005Z,24.53
2023-02-15T18:42:24.263Z,23.33
2023-02-15T18:44:55.642Z,23.67
2023-02-15T18:47:22.988Z,24.93
2023-02-15T18:49:49.830Z,23.77
2023-02-15T18:52:22.601Z,23.77
2023-02-15T18:54:58.063Z,24.27
2023-02-15T18:57:25.090Z,23.50
2023-02-15T18:59:51.923Z,23.87
2023-02-15T19:02:19.992Z,23.60
2023-02-15T19:04:49.484Z,23.73
2023-02-15T19:07:29.116Z,23.97
2023-02-15T19:09:58.949Z,23.93
2023-02-15T19:12:26.665Z,23.43
2023-02-15T19:14:56.703Z,23.23
2023-02-15T19:17:24.788Z,24.07
2023-02-15T19:19:53.040Z,23.93
2023-02-15T19:22:31.301Z,23.37
2023-02-15T19:25:05.716Z,24.53
2023-02-15T19:27:36.996Z,24.50
2023-02-15T19:30:14.154Z,23.43
2023-02-15T19:32:40.942Z,24.17
2023-02-15T19:35:14.705Z,25.87
2023-02-15T19:37:44.054Z,24.10
2023-02-15T19:40:24.119Z,24.20
2023-02-15T19:42:51.556Z,24.27
2023-02-15T19:45:22.017Z,25.27
2023-02-15T19:47:49.005Z,24.13
2023-02-15T19:50:22.449Z,24.93
2023-02-15T19:52:49.771Z,24.97
2023-02-15T19:55:29.772Z,25.50
2023-02-15T19:57:58.120Z,23.73
2023-02-15T20:00:30.540Z,24.97
2023-02-15T20:02:59.320Z,25.10
2023-02-15T20:05:28.924Z,25.00
2023-02-15T20:07:56.720Z,25.27
2023-02-15T20:10:32.623Z,24.33
2023-02-15T20:12:59.926Z,25.30
2023-02-15T20:15:34.512Z,26.23
2023-02-15T20:18:04.050Z,25.40
2023-02-15T20:20:55.244Z,25.37
2023-02-15T20:23:30.948Z,25.73
2023-02-15T20:25:59.848Z,26.40
2023-02-15T20:28:31.879Z,25.13
2023-02-15T20:30:59.433Z,25.67
2023-02-15T20:33:26.622Z,25.63
2023-02-15T20:35:53.563Z,25.97
2023-02-15T20:38:29.980Z,26.47
2023-02-15T20:41:18.190Z,25.87
2023-02-15T20:43:45.079Z,24.43
2023-02-15T20:46:12.125Z,26.97
2023-02-15T20:48:39.150Z,26.93
2023-02-15T20:51:06.625Z,25.23
2023-02-15T20:53:33.492Z,27.20
2023-02-15T20:56:00.440Z,25.67
2023-02-15T20:58:30.283Z,26.67
2023-02-15T21:00:58.730Z,25.77
2023-02-15T21:03:30.877Z,25.33
2023-02-15T21:05:58.683Z,24.17
2023-02-15T21:08:25.852Z,24.53
2023-02-15T21:10:53.907Z,25.07
2023-02-15T21:13:26.489Z,24.27
2023-02-15T21:15:55.664Z,25.50
2023-02-15T21:18:25.389Z,25.70
2023-02-15T21:20:55.101Z,25.30
2023-02-15T21:23:29.604Z,25.83
2023-02-15T21:25:57.345Z,25.07
2023-02-15T21:28:27.143Z,27.63
2023-02-15T21:30:55.389Z,26.17
2023-02-15T21:33:22.334Z,26.93
2023-02-15T21:35:52.879Z,27.20
2023-02-15T21:38:25.337Z,27.50
2023-02-15T21:40:52.326Z,31.60
2023-02-15T21:43:43.984Z,30.27
2023-02-15T21:46:35.251Z,31.23
2023-02-15T21:49:03.067Z,30.20
2023-02-15T21:51:49.767Z,29.93
2023-02-15T21:54:20.971Z,30.23
2023-02-15T21:56:50.976Z,30.50
2023-02-15T21:59:18.872Z,31.50
2023-02-15T22:01:49.185Z,31.77
2023-02-15T22:04:25.439Z,30.63
2023-02-15T22:06:52.848Z,30.80
2023-02-15T22:09:22.789Z,32.60
2023-02-15T22:11:51.050Z,32.43
2023-02-15T22:14:41.977Z,32.57
2023-02-15T22:17:19.066Z,33.50
2023-02-15T22:19:47.383Z,33.00
2023-02-15T22:22:14.296Z,33.20
2023-02-15T22:24:41.822Z,31.83
2023-02-15T22:27:19.999Z,34.67
2023-02-15T22:29:47.021Z,34.73
2023-02-15T22:32:22.473Z,34.37
2023-02-15T22:34:50.110Z,35.07
2023-02-15T22:37:17.195Z,35.60
2023-02-15T22:39:44.256Z,33.93
2023-02-15T22:42:37.500Z,33.80
2023-02-15T22:45:06.694Z,32.30
2023-02-15T22:47:37.673Z,32.80
2023-02-15T22:50:14.806Z,33.10
2023-02-15T22:52:41.602Z,33.93
2023-02-15T22:55:09.528Z,32.73
2023-02-15T22:57:36.488Z,34.57
2023-02-15T23:00:06.286Z,34.17
2023-02-15T23:02:33.097Z,33.67
2023-02-15T23:04:59.962Z,33.87
2023-02-15T23:07:27.879Z,34.60
2023-02-15T23:09:54.700Z,32.70
2023-02-15T23:12:49.339Z,32.47
2023-02-15T23:15:16.168Z,34.27
2023-02-15T23:17:42.934Z,34.47
2023-02-15T23:20:15.046Z,34.53
2023-02-15T23:22:43.496Z,32.97
2023-02-15T23:25:11.560Z,34.20
2023-02-15T23:27:56.831Z,34.00
2023-02-15T23:30:24.498Z,34.17
2023-02-15T23:32:54.562Z,33.50
2023-02-15T23:35:21.509Z,36.60
2023-02-15T23:37:48.370Z,36.17
2023-02-15T23:40:35.155Z,34.47
2023-02-15T23:43:02.555Z,34.70
2023-02-15T23:45:33.567Z,35.50
2023-02-15T23:48:18.993Z,35.60
2023-02-15T23:50:45.858Z,34.67
2023-02-15T23:53:12.620Z,34.63
2023-02-15T23:55:43.169Z,35.20
2023-02-15T23:58:16.308Z,36.73
